sensor_id;sensor_type;location;lat;lon;timestamp;temperature;humidity
26583;DHT22;14230;45.382;10.998;2023-04-06T00:01:34;5.90;92.70
26583;DHT22;14230;45.382;10.998;2023-04-06T00:04:02;6.00;93.00
26583;DHT22;14230;45.382;10.998;2023-04-06T00:06:29;6.00;92.90
26583;DHT22;14230;45.382;10.998;2023-04-06T00:08:57;6.10;92.90
26583;DHT22;14230;45.382;10.998;2023-04-06T00:11:24;6.20;92.60
26583;DHT22;14230;45.382;10.998;2023-04-06T00:13:52;6.10;92.80
26583;DHT22;14230;45.382;10.998;2023-04-06T00:16:20;6.00;93.20
26583;DHT22;14230;45.382;10.998;2023-04-06T00:18:50;5.80;93.50
26583;DHT22;14230;45.382;10.998;2023-04-06T00:21:18;5.90;93.20
26583;DHT22;14230;45.382;10.998;2023-04-06T00:23:45;5.90;93.30
26583;DHT22;14230;45.382;10.998;2023-04-06T00:26:16;5.90;93.40
26583;DHT22;14230;45.382;10.998;2023-04-06T00:28:47;5.80;93.40
26583;DHT22;14230;45.382;10.998;2023-04-06T00:31:14;5.80;93.30
26583;DHT22;14230;45.382;10.998;2023-04-06T00:33:42;5.80;93.40
26583;DHT22;14230;45.382;10.998;2023-04-06T00:36:09;5.90;93.80
26583;DHT22;14230;45.382;10.998;2023-04-06T00:38:37;6.00;93.80
26583;DHT22;14230;45.382;10.998;2023-04-06T00:41:04;6.10;93.20
26583;DHT22;14230;45.382;10.998;2023-04-06T00:43:32;6.10;93.00
26583;DHT22;14230;45.382;10.998;2023-04-06T00:46:00;6.10;94.20
26583;DHT22;14230;45.382;10.998;2023-04-06T00:48:29;6.00;94.80
26583;DHT22;14230;45.382;10.998;2023-04-06T00:51:00;5.90;95.70
26583;DHT22;14230;45.382;10.998;2023-04-06T00:53:27;5.90;96.10
26583;DHT22;14230;45.382;10.998;2023-04-06T00:55:55;5.90;96.40
26583;DHT22;14230;45.382;10.998;2023-04-06T00:58:23;5.80;96.50
26583;DHT22;14230;45.382;10.998;2023-04-06T01:00:59;5.80;96.80
26583;DHT22;14230;45.382;10.998;2023-04-06T01:03:28;5.80;96.60
26583;DHT22;14230;45.382;10.998;2023-04-06T01:05:55;5.70;97.10
26583;DHT22;14230;45.382;10.998;2023-04-06T01:08:31;5.70;97.50
26583;DHT22;14230;45.382;10.998;2023-04-06T01:11:12;5.70;97.60
26583;DHT22;14230;45.382;10.998;2023-04-06T01:13:39;5.60;97.70
26583;DHT22;14230;45.382;10.998;2023-04-06T01:16:14;5.70;97.40
26583;DHT22;14230;45.382;10.998;2023-04-06T01:19:06;5.50;97.60
26583;DHT22;14230;45.382;10.998;2023-04-06T01:21:36;5.50;97.90
26583;DHT22;14230;45.382;10.998;2023-04-06T01:24:18;5.40;98.00
26583;DHT22;14230;45.382;10.998;2023-04-06T01:27:04;5.40;98.60
26583;DHT22;14230;45.382;10.998;2023-04-06T01:29:52;5.40;98.70
26583;DHT22;14230;45.382;10.998;2023-04-06T01:32:33;5.40;98.80
26583;DHT22;14230;45.382;10.998;2023-04-06T01:35:00;5.40;98.80
26583;DHT22;14230;45.382;10.998;2023-04-06T01:37:30;5.40;98.90
26583;DHT22;14230;45.382;10.998;2023-04-06T01:40:02;5.40;99.00
26583;DHT22;14230;45.382;10.998;2023-04-06T01:42:41;5.30;99.50
26583;DHT22;14230;45.382;10.998;2023-04-06T01:45:14;5.30;99.50
26583;DHT22;14230;45.382;10.998;2023-04-06T01:47:42;5.20;99.90
26583;DHT22;14230;45.382;10.998;2023-04-06T01:50:11;5.10;99.90
26583;DHT22;14230;45.382;10.998;2023-04-06T01:52:44;5.10;99.90
26583;DHT22;14230;45.382;10.998;2023-04-06T01:55:12;5.10;99.90
26583;DHT22;14230;45.382;10.998;2023-04-06T01:57:59;5.00;99.90
26583;DHT22;14230;45.382;10.998;2023-04-06T02:00:34;5.20;99.90
26583;DHT22;14230;45.382;10.998;2023-04-06T02:03:02;5.10;99.90
26583;DHT22;14230;45.382;10.998;2023-04-06T02:05:32;5.10;99.90
26583;DHT22;14230;45.382;10.998;2023-04-06T02:08:15;5.00;99.90
26583;DHT22;14230;45.382;10.998;2023-04-06T02:10:45;5.10;99.90
26583;DHT22;14230;45.382;10.998;2023-04-06T02:13:23;5.20;99.90
26583;DHT22;14230;45.382;10.998;2023-04-06T02:15:55;5.30;99.90
26583;DHT22;14230;45.382;10.998;2023-04-06T02:18:23;5.10;99.90
26583;DHT22;14230;45.382;10.998;2023-04-06T02:20:50;5.10;99.90
26583;DHT22;14230;45.382;10.998;2023-04-06T02:23:20;5.20;99.90
26583;DHT22;14230;45.382;10.998;2023-04-06T02:25:47;5.20;99.90
26583;DHT22;14230;45.382;10.998;2023-04-06T02:28:15;5.20;99.90
26583;DHT22;14230;45.382;10.998;2023-04-06T02:30:42;5.30;99.90
26583;DHT22;14230;45.382;10.998;2023-04-06T02:33:10;5.30;99.90
26583;DHT22;14230;45.382;10.998;2023-04-06T02:35:44;5.40;99.90
26583;DHT22;14230;45.382;10.998;2023-04-06T02:38:12;5.50;99.90
26583;DHT22;14230;45.382;10.998;2023-04-06T02:40:39;5.60;99.90
26583;DHT22;14230;45.382;10.998;2023-04-06T02:43:16;5.70;99.90
26583;DHT22;14230;45.382;10.998;2023-04-06T02:45:45;5.70;99.90
26583;DHT22;14230;45.382;10.998;2023-04-06T02:48:13;5.60;99.90
26583;DHT22;14230;45.382;10.998;2023-04-06T02:50:41;5.40;99.90
26583;DHT22;14230;45.382;10.998;2023-04-06T02:53:09;5.30;99.90
26583;DHT22;14230;45.382;10.998;2023-04-06T02:55:38;5.30;99.90
26583;DHT22;14230;45.382;10.998;2023-04-06T02:58:06;5.20;99.90
26583;DHT22;14230;45.382;10.998;2023-04-06T03:00:43;5.10;99.90
26583;DHT22;14230;45.382;10.998;2023-04-06T03:03:11;5.10;99.90
26583;DHT22;14230;45.382;10.998;2023-04-06T03:05:40;5.10;99.90
26583;DHT22;14230;45.382;10.998;2023-04-06T03:08:07;5.00;99.90
26583;DHT22;14230;45.382;10.998;2023-04-06T03:10:40;5.10;99.90
26583;DHT22;14230;45.382;10.998;2023-04-06T03:13:08;5.20;99.90
26583;DHT22;14230;45.382;10.998;2023-04-06T03:15:43;5.20;99.90
26583;DHT22;14230;45.382;10.998;2023-04-06T03:18:15;5.20;99.90
26583;DHT22;14230;45.382;10.998;2023-04-06T03:20:47;5.10;99.90
26583;DHT22;14230;45.382;10.998;2023-04-06T03:23:16;5.20;99.90
26583;DHT22;14230;45.382;10.998;2023-04-06T03:25:45;5.10;99.90
26583;DHT22;14230;45.382;10.998;2023-04-06T03:28:18;5.10;99.90
26583;DHT22;14230;45.382;10.998;2023-04-06T03:30:58;5.10;99.90
26583;DHT22;14230;45.382;10.998;2023-04-06T03:33:59;5.00;99.90
26583;DHT22;14230;45.382;10.998;2023-04-06T03:36:32;5.00;99.90
26583;DHT22;14230;45.382;10.998;2023-04-06T03:39:00;5.00;99.90
26583;DHT22;14230;45.382;10.998;2023-04-06T03:41:30;4.90;99.90
26583;DHT22;14230;45.382;10.998;2023-04-06T03:44:05;4.80;99.90
26583;DHT22;14230;45.382;10.998;2023-04-06T03:46:33;4.70;99.90
26583;DHT22;14230;45.382;10.998;2023-04-06T03:49:01;4.70;99.90
26583;DHT22;14230;45.382;10.998;2023-04-06T03:51:29;4.60;99.90
26583;DHT22;14230;45.382;10.998;2023-04-06T03:53:56;4.60;99.90
26583;DHT22;14230;45.382;10.998;2023-04-06T03:56:24;4.50;99.90
26583;DHT22;14230;45.382;10.998;2023-04-06T03:58:53;4.40;99.90
26583;DHT22;14230;45.382;10.998;2023-04-06T04:01:21;4.40;99.90
26583;DHT22;14230;45.382;10.998;2023-04-06T04:03:49;4.50;99.90
26583;DHT22;14230;45.382;10.998;2023-04-06T04:06:18;4.40;99.90
26583;DHT22;14230;45.382;10.998;2023-04-06T04:08:45;4.30;99.90
26583;DHT22;14230;45.382;10.998;2023-04-06T04:11:13;4.30;99.90
26583;DHT22;14230;45.382;10.998;2023-04-06T04:13:42;4.20;99.90
26583;DHT22;14230;45.382;10.998;2023-04-06T04:16:10;4.30;99.90
26583;DHT22;14230;45.382;10.998;2023-04-06T04:18:37;4.20;99.90
26583;DHT22;14230;45.382;10.998;2023-04-06T04:21:06;4.20;99.90
26583;DHT22;14230;45.382;10.998;2023-04-06T04:23:33;4.20;99.90
26583;DHT22;14230;45.382;10.998;2023-04-06T04:26:03;4.10;99.90
26583;DHT22;14230;45.382;10.998;2023-04-06T04:28:31;4.00;99.90
26583;DHT22;14230;45.382;10.998;2023-04-06T04:30:58;4.10;99.90
26583;DHT22;14230;45.382;10.998;2023-04-06T04:33:29;4.00;99.90
26583;DHT22;14230;45.382;10.998;2023-04-06T04:35:58;4.00;99.90
26583;DHT22;14230;45.382;10.998;2023-04-06T04:38:29;4.10;99.90
26583;DHT22;14230;45.382;10.998;2023-04-06T04:40:57;4.10;99.90
26583;DHT22;14230;45.382;10.998;2023-04-06T04:43:25;4.10;99.90
26583;DHT22;14230;45.382;10.998;2023-04-06T04:45:52;4.00;99.90
26583;DHT22;14230;45.382;10.998;2023-04-06T04:48:31;4.00;99.90
26583;DHT22;14230;45.382;10.998;2023-04-06T04:51:04;4.00;99.90
26583;DHT22;14230;45.382;10.998;2023-04-06T04:54:07;4.10;99.90
26583;DHT22;14230;45.382;10.998;2023-04-06T04:56:35;4.10;99.90
26583;DHT22;14230;45.382;10.998;2023-04-06T04:59:12;4.10;99.90
26583;DHT22;14230;45.382;10.998;2023-04-06T05:01:45;4.10;99.90
26583;DHT22;14230;45.382;10.998;2023-04-06T05:04:26;4.10;99.90
26583;DHT22;14230;45.382;10.998;2023-04-06T05:07:05;4.10;99.90
26583;DHT22;14230;45.382;10.998;2023-04-06T05:09:33;4.10;99.90
26583;DHT22;14230;45.382;10.998;2023-04-06T05:12:01;4.30;99.90
26583;DHT22;14230;45.382;10.998;2023-04-06T05:14:32;4.30;99.90
26583;DHT22;14230;45.382;10.998;2023-04-06T05:17:03;4.30;99.90
26583;DHT22;14230;45.382;10.998;2023-04-06T05:19:32;4.40;99.90
26583;DHT22;14230;45.382;10.998;2023-04-06T05:22:00;4.50;99.90
26583;DHT22;14230;45.382;10.998;2023-04-06T05:24:30;4.50;99.90
26583;DHT22;14230;45.382;10.998;2023-04-06T05:26:58;4.50;99.90
26583;DHT22;14230;45.382;10.998;2023-04-06T05:29:28;4.60;99.90
26583;DHT22;14230;45.382;10.998;2023-04-06T05:31:56;4.70;99.90
26583;DHT22;14230;45.382;10.998;2023-04-06T05:34:24;4.70;99.90
26583;DHT22;14230;45.382;10.998;2023-04-06T05:36:51;4.90;99.90
26583;DHT22;14230;45.382;10.998;2023-04-06T05:39:23;5.10;99.90
26583;DHT22;14230;45.382;10.998;2023-04-06T05:41:53;5.20;99.90
26583;DHT22;14230;45.382;10.998;2023-04-06T05:44:37;5.30;99.90
26583;DHT22;14230;45.382;10.998;2023-04-06T05:47:09;5.40;99.90
26583;DHT22;14230;45.382;10.998;2023-04-06T05:49:39;5.50;99.90
26583;DHT22;14230;45.382;10.998;2023-04-06T05:52:11;5.70;99.90
26583;DHT22;14230;45.382;10.998;2023-04-06T05:54:43;5.80;99.90
26583;DHT22;14230;45.382;10.998;2023-04-06T05:57:11;6.00;99.90
26583;DHT22;14230;45.382;10.998;2023-04-06T05:59:39;6.30;99.90
26583;DHT22;14230;45.382;10.998;2023-04-06T06:02:06;6.40;99.90
26583;DHT22;14230;45.382;10.998;2023-04-06T06:04:39;6.50;99.90
26583;DHT22;14230;45.382;10.998;2023-04-06T06:07:07;6.70;99.90
26583;DHT22;14230;45.382;10.998;2023-04-06T06:09:41;6.80;99.50
26583;DHT22;14230;45.382;10.998;2023-04-06T06:12:20;7.00;99.50
26583;DHT22;14230;45.382;10.998;2023-04-06T06:14:49;7.30;99.10
26583;DHT22;14230;45.382;10.998;2023-04-06T06:17:19;7.90;98.50
26583;DHT22;14230;45.382;10.998;2023-04-06T06:19:47;9.20;97.40
26583;DHT22;14230;45.382;10.998;2023-04-06T06:22:15;10.50;94.60
26583;DHT22;14230;45.382;10.998;2023-04-06T06:24:46;11.10;92.70
26583;DHT22;14230;45.382;10.998;2023-04-06T06:27:16;10.70;92.00
26583;DHT22;14230;45.382;10.998;2023-04-06T06:29:43;10.40;92.80
26583;DHT22;14230;45.382;10.998;2023-04-06T06:32:11;10.10;92.60
26583;DHT22;14230;45.382;10.998;2023-04-06T06:34:40;9.60;93.30
26583;DHT22;14230;45.382;10.998;2023-04-06T06:37:09;9.20;93.10
26583;DHT22;14230;45.382;10.998;2023-04-06T06:39:37;8.80;94.10
26583;DHT22;14230;45.382;10.998;2023-04-06T06:42:05;9.50;94.20
26583;DHT22;14230;45.382;10.998;2023-04-06T06:44:45;10.80;93.10
26583;DHT22;14230;45.382;10.998;2023-04-06T06:47:13;12.30;91.50
26583;DHT22;14230;45.382;10.998;2023-04-06T06:49:40;13.00;89.20
26583;DHT22;14230;45.382;10.998;2023-04-06T06:52:08;13.40;89.00
26583;DHT22;14230;45.382;10.998;2023-04-06T06:54:36;13.70;88.20
26583;DHT22;14230;45.382;10.998;2023-04-06T06:57:04;14.40;87.40
26583;DHT22;14230;45.382;10.998;2023-04-06T06:59:31;14.70;85.90
26583;DHT22;14230;45.382;10.998;2023-04-06T07:01:59;14.70;83.80
26583;DHT22;14230;45.382;10.998;2023-04-06T07:04:27;15.10;83.70
26583;DHT22;14230;45.382;10.998;2023-04-06T07:06:55;15.40;82.30
26583;DHT22;14230;45.382;10.998;2023-04-06T07:09:23;15.50;81.20
26583;DHT22;14230;45.382;10.998;2023-04-06T07:11:50;15.20;81.10
26583;DHT22;14230;45.382;10.998;2023-04-06T07:14:17;14.40;78.50
26583;DHT22;14230;45.382;10.998;2023-04-06T07:16:46;14.30;81.30
26583;DHT22;14230;45.382;10.998;2023-04-06T07:19:15;13.90;78.10
26583;DHT22;14230;45.382;10.998;2023-04-06T07:21:42;13.90;78.00
26583;DHT22;14230;45.382;10.998;2023-04-06T07:24:10;14.70;79.40
26583;DHT22;14230;45.382;10.998;2023-04-06T07:26:38;15.60;77.60
26583;DHT22;14230;45.382;10.998;2023-04-06T07:29:05;16.60;74.50
26583;DHT22;14230;45.382;10.998;2023-04-06T07:31:33;17.50;71.20
26583;DHT22;14230;45.382;10.998;2023-04-06T07:34:03;18.40;67.30
26583;DHT22;14230;45.382;10.998;2023-04-06T07:36:31;18.50;63.90
26583;DHT22;14230;45.382;10.998;2023-04-06T07:38:58;19.10;65.00
26583;DHT22;14230;45.382;10.998;2023-04-06T07:41:26;18.90;63.20
26583;DHT22;14230;45.382;10.998;2023-04-06T07:43:54;19.60;60.90
26583;DHT22;14230;45.382;10.998;2023-04-06T07:46:23;20.30;60.50
26583;DHT22;14230;45.382;10.998;2023-04-06T07:48:50;20.10;58.80
26583;DHT22;14230;45.382;10.998;2023-04-06T07:51:18;19.40;58.70
26583;DHT22;14230;45.382;10.998;2023-04-06T07:53:46;18.90;59.80
26583;DHT22;14230;45.382;10.998;2023-04-06T07:56:14;18.40;60.00
26583;DHT22;14230;45.382;10.998;2023-04-06T07:58:42;18.10;60.70
26583;DHT22;14230;45.382;10.998;2023-04-06T08:01:10;18.10;60.10
26583;DHT22;14230;45.382;10.998;2023-04-06T08:03:38;18.50;59.10
26583;DHT22;14230;45.382;10.998;2023-04-06T08:06:06;18.90;58.50
26583;DHT22;14230;45.382;10.998;2023-04-06T08:08:33;19.20;58.10
26583;DHT22;14230;45.382;10.998;2023-04-06T08:11:01;19.30;58.40
26583;DHT22;14230;45.382;10.998;2023-04-06T08:13:29;19.50;57.70
26583;DHT22;14230;45.382;10.998;2023-04-06T08:15:58;19.50;55.90
26583;DHT22;14230;45.382;10.998;2023-04-06T08:18:27;20.00;54.70
26583;DHT22;14230;45.382;10.998;2023-04-06T08:20:59;20.30;54.20
26583;DHT22;14230;45.382;10.998;2023-04-06T08:23:27;20.50;53.40
26583;DHT22;14230;45.382;10.998;2023-04-06T08:25:54;20.60;54.50
26583;DHT22;14230;45.382;10.998;2023-04-06T08:28:23;21.50;52.20
26583;DHT22;14230;45.382;10.998;2023-04-06T08:30:50;22.20;50.10
26583;DHT22;14230;45.382;10.998;2023-04-06T08:33:18;22.80;49.70
26583;DHT22;14230;45.382;10.998;2023-04-06T08:35:45;23.30;49.10
26583;DHT22;14230;45.382;10.998;2023-04-06T08:38:13;23.20;48.00
26583;DHT22;14230;45.382;10.998;2023-04-06T08:40:40;23.30;47.90
26583;DHT22;14230;45.382;10.998;2023-04-06T08:43:09;24.00;47.60
26583;DHT22;14230;45.382;10.998;2023-04-06T08:45:40;24.40;47.40
26583;DHT22;14230;45.382;10.998;2023-04-06T08:48:09;24.40;46.50
26583;DHT22;14230;45.382;10.998;2023-04-06T08:50:38;23.90;45.60
26583;DHT22;14230;45.382;10.998;2023-04-06T08:53:06;23.90;45.60
26583;DHT22;14230;45.382;10.998;2023-04-06T08:55:34;22.90;46.30
26583;DHT22;14230;45.382;10.998;2023-04-06T08:58:02;23.00;47.10
26583;DHT22;14230;45.382;10.998;2023-04-06T09:00:31;22.80;46.80
26583;DHT22;14230;45.382;10.998;2023-04-06T09:02:59;22.90;47.90
26583;DHT22;14230;45.382;10.998;2023-04-06T09:05:27;22.60;46.90
26583;DHT22;14230;45.382;10.998;2023-04-06T09:07:54;23.10;46.40
26583;DHT22;14230;45.382;10.998;2023-04-06T09:10:22;23.60;44.30
26583;DHT22;14230;45.382;10.998;2023-04-06T09:13:03;23.90;44.10
26583;DHT22;14230;45.382;10.998;2023-04-06T09:15:31;23.70;45.00
26583;DHT22;14230;45.382;10.998;2023-04-06T09:17:58;24.00;45.10
26583;DHT22;14230;45.382;10.998;2023-04-06T09:20:27;24.10;44.60
26583;DHT22;14230;45.382;10.998;2023-04-06T09:22:55;24.10;44.30
26583;DHT22;14230;45.382;10.998;2023-04-06T09:25:24;23.90;43.30
26583;DHT22;14230;45.382;10.998;2023-04-06T09:28:01;24.40;43.20
26583;DHT22;14230;45.382;10.998;2023-04-06T09:30:29;24.50;43.40
26583;DHT22;14230;45.382;10.998;2023-04-06T09:32:57;23.90;43.90
26583;DHT22;14230;45.382;10.998;2023-04-06T09:35:26;23.80;43.60
26583;DHT22;14230;45.382;10.998;2023-04-06T09:37:54;22.80;44.70
26583;DHT22;14230;45.382;10.998;2023-04-06T09:40:23;23.00;46.50
26583;DHT22;14230;45.382;10.998;2023-04-06T09:42:51;23.70;44.90
26583;DHT22;14230;45.382;10.998;2023-04-06T09:45:20;23.30;43.70
26583;DHT22;14230;45.382;10.998;2023-04-06T09:47:48;23.40;44.60
26583;DHT22;14230;45.382;10.998;2023-04-06T09:50:19;23.90;43.30
26583;DHT22;14230;45.382;10.998;2023-04-06T09:52:51;23.90;44.20
26583;DHT22;14230;45.382;10.998;2023-04-06T09:55:34;23.10;43.60
26583;DHT22;14230;45.382;10.998;2023-04-06T10:00:32;23.20;42.90
26583;DHT22;14230;45.382;10.998;2023-04-06T10:03:14;23.50;44.20
26583;DHT22;14230;45.382;10.998;2023-04-06T10:05:55;23.60;42.80
26583;DHT22;14230;45.382;10.998;2023-04-06T10:08:28;23.90;43.60
26583;DHT22;14230;45.382;10.998;2023-04-06T10:10:59;23.70;43.50
26583;DHT22;14230;45.382;10.998;2023-04-06T10:13:28;23.40;43.80
26583;DHT22;14230;45.382;10.998;2023-04-06T10:15:56;23.40;43.30
26583;DHT22;14230;45.382;10.998;2023-04-06T10:18:24;23.90;44.10
26583;DHT22;14230;45.382;10.998;2023-04-06T10:23:32;24.10;42.00
26583;DHT22;14230;45.382;10.998;2023-04-06T10:26:01;24.10;44.70
26583;DHT22;14230;45.382;10.998;2023-04-06T10:28:34;24.20;43.60
26583;DHT22;14230;45.382;10.998;2023-04-06T10:31:06;24.70;42.60
26583;DHT22;14230;45.382;10.998;2023-04-06T10:33:34;25.10;42.30
26583;DHT22;14230;45.382;10.998;2023-04-06T10:36:14;25.20;41.70
26583;DHT22;14230;45.382;10.998;2023-04-06T10:38:42;25.10;41.70
26583;DHT22;14230;45.382;10.998;2023-04-06T10:41:11;24.70;42.40
26583;DHT22;14230;45.382;10.998;2023-04-06T10:43:40;24.20;42.00
26583;DHT22;14230;45.382;10.998;2023-04-06T10:46:09;23.80;42.40
26583;DHT22;14230;45.382;10.998;2023-04-06T10:48:39;24.40;43.20
26583;DHT22;14230;45.382;10.998;2023-04-06T10:51:15;23.80;41.90
26583;DHT22;14230;45.382;10.998;2023-04-06T10:53:44;23.30;43.90
26583;DHT22;14230;45.382;10.998;2023-04-06T10:56:15;23.10;44.50
26583;DHT22;14230;45.382;10.998;2023-04-06T10:58:52;23.30;45.10
26583;DHT22;14230;45.382;10.998;2023-04-06T11:01:21;23.30;44.50
26583;DHT22;14230;45.382;10.998;2023-04-06T11:03:54;22.20;44.80
26583;DHT22;14230;45.382;10.998;2023-04-06T11:08:52;21.30;46.50
26583;DHT22;14230;45.382;10.998;2023-04-06T11:11:22;20.70;48.10
26583;DHT22;14230;45.382;10.998;2023-04-06T11:16:26;19.00;50.40
26583;DHT22;14230;45.382;10.998;2023-04-06T11:21:35;18.20;51.80
26583;DHT22;14230;45.382;10.998;2023-04-06T11:29:14;17.60;52.30
26583;DHT22;14230;45.382;10.998;2023-04-06T11:31:47;17.20;53.40
26583;DHT22;14230;45.382;10.998;2023-04-06T11:34:21;17.10;53.00
26583;DHT22;14230;45.382;10.998;2023-04-06T11:36:55;16.80;54.10
26583;DHT22;14230;45.382;10.998;2023-04-06T11:39:25;16.70;54.30
26583;DHT22;14230;45.382;10.998;2023-04-06T11:41:57;16.70;54.50
26583;DHT22;14230;45.382;10.998;2023-04-06T11:44:40;16.80;54.00
26583;DHT22;14230;45.382;10.998;2023-04-06T11:47:13;16.80;53.90
26583;DHT22;14230;45.382;10.998;2023-04-06T11:49:43;16.80;54.90
26583;DHT22;14230;45.382;10.998;2023-04-06T11:52:24;16.80;54.80
26583;DHT22;14230;45.382;10.998;2023-04-06T11:54:54;16.70;55.00
26583;DHT22;14230;45.382;10.998;2023-04-06T11:57:24;16.50;54.80
26583;DHT22;14230;45.382;10.998;2023-04-06T11:59:52;16.50;55.30
26583;DHT22;14230;45.382;10.998;2023-04-06T12:02:20;16.60;56.10
26583;DHT22;14230;45.382;10.998;2023-04-06T12:04:48;16.50;55.30
26583;DHT22;14230;45.382;10.998;2023-04-06T12:07:15;16.50;55.50
26583;DHT22;14230;45.382;10.998;2023-04-06T12:09:43;16.40;55.40
26583;DHT22;14230;45.382;10.998;2023-04-06T12:12:10;16.10;55.60
26583;DHT22;14230;45.382;10.998;2023-04-06T12:14:38;16.10;56.50
26583;DHT22;14230;45.382;10.998;2023-04-06T12:17:05;16.00;56.30
26583;DHT22;14230;45.382;10.998;2023-04-06T12:19:33;16.10;56.80
26583;DHT22;14230;45.382;10.998;2023-04-06T12:22:00;16.20;57.10
26583;DHT22;14230;45.382;10.998;2023-04-06T12:24:29;16.10;57.10
26583;DHT22;14230;45.382;10.998;2023-04-06T12:26:58;16.00;57.10
26583;DHT22;14230;45.382;10.998;2023-04-06T12:29:37;16.00;57.30
26583;DHT22;14230;45.382;10.998;2023-04-06T12:32:04;16.00;57.20
26583;DHT22;14230;45.382;10.998;2023-04-06T12:34:33;16.10;57.50
26583;DHT22;14230;45.382;10.998;2023-04-06T12:37:00;16.00;57.40
26583;DHT22;14230;45.382;10.998;2023-04-06T12:39:28;15.90;57.50
26583;DHT22;14230;45.382;10.998;2023-04-06T12:41:55;15.90;57.50
26583;DHT22;14230;45.382;10.998;2023-04-06T12:44:24;15.70;57.30
26583;DHT22;14230;45.382;10.998;2023-04-06T12:46:53;15.70;57.60
26583;DHT22;14230;45.382;10.998;2023-04-06T12:49:21;15.80;58.20
26583;DHT22;14230;45.382;10.998;2023-04-06T12:51:49;15.90;58.50
26583;DHT22;14230;45.382;10.998;2023-04-06T12:54:19;16.00;58.50
26583;DHT22;14230;45.382;10.998;2023-04-06T12:56:47;16.10;57.90
26583;DHT22;14230;45.382;10.998;2023-04-06T12:59:14;16.10;57.70
26583;DHT22;14230;45.382;10.998;2023-04-06T13:01:43;16.00;57.80
26583;DHT22;14230;45.382;10.998;2023-04-06T13:04:11;16.10;58.40
26583;DHT22;14230;45.382;10.998;2023-04-06T13:06:39;16.10;58.80
26583;DHT22;14230;45.382;10.998;2023-04-06T13:09:06;16.10;58.30
26583;DHT22;14230;45.382;10.998;2023-04-06T13:11:34;16.00;59.20
26583;DHT22;14230;45.382;10.998;2023-04-06T13:14:02;16.00;58.60
26583;DHT22;14230;45.382;10.998;2023-04-06T13:16:30;16.00;58.10
26583;DHT22;14230;45.382;10.998;2023-04-06T13:18:58;16.00;57.90
26583;DHT22;14230;45.382;10.998;2023-04-06T13:21:25;16.00;57.60
26583;DHT22;14230;45.382;10.998;2023-04-06T13:23:53;16.10;57.90
26583;DHT22;14230;45.382;10.998;2023-04-06T13:26:21;16.10;58.30
26583;DHT22;14230;45.382;10.998;2023-04-06T13:28:48;16.10;57.90
26583;DHT22;14230;45.382;10.998;2023-04-06T13:31:16;16.20;57.70
26583;DHT22;14230;45.382;10.998;2023-04-06T13:33:43;16.30;58.40
26583;DHT22;14230;45.382;10.998;2023-04-06T13:36:11;16.30;58.30
26583;DHT22;14230;45.382;10.998;2023-04-06T13:38:38;16.10;58.40
26583;DHT22;14230;45.382;10.998;2023-04-06T13:41:06;16.20;59.00
26583;DHT22;14230;45.382;10.998;2023-04-06T13:43:33;16.10;58.50
26583;DHT22;14230;45.382;10.998;2023-04-06T13:46:01;16.00;58.90
26583;DHT22;14230;45.382;10.998;2023-04-06T13:48:29;16.00;58.30
26583;DHT22;14230;45.382;10.998;2023-04-06T13:50:57;16.20;58.60
26583;DHT22;14230;45.382;10.998;2023-04-06T13:53:24;16.30;58.50
26583;DHT22;14230;45.382;10.998;2023-04-06T13:55:53;16.50;58.50
26583;DHT22;14230;45.382;10.998;2023-04-06T13:58:21;16.60;57.80
26583;DHT22;14230;45.382;10.998;2023-04-06T14:00:49;16.60;57.40
26583;DHT22;14230;45.382;10.998;2023-04-06T14:03:17;16.60;57.50
26583;DHT22;14230;45.382;10.998;2023-04-06T14:05:45;16.30;57.10
26583;DHT22;14230;45.382;10.998;2023-04-06T14:08:12;16.20;56.80
26583;DHT22;14230;45.382;10.998;2023-04-06T14:10:40;16.30;58.40
26583;DHT22;14230;45.382;10.998;2023-04-06T14:13:09;16.30;58.70
26583;DHT22;14230;45.382;10.998;2023-04-06T14:15:37;16.30;58.90
26583;DHT22;14230;45.382;10.998;2023-04-06T14:18:05;16.30;57.70
26583;DHT22;14230;45.382;10.998;2023-04-06T14:20:33;16.40;57.90
26583;DHT22;14230;45.382;10.998;2023-04-06T14:23:01;16.40;58.10
26583;DHT22;14230;45.382;10.998;2023-04-06T14:25:29;16.30;58.60
26583;DHT22;14230;45.382;10.998;2023-04-06T14:28:05;16.30;59.00
26583;DHT22;14230;45.382;10.998;2023-04-06T14:30:32;16.30;58.20
26583;DHT22;14230;45.382;10.998;2023-04-06T14:33:00;16.10;57.90
26583;DHT22;14230;45.382;10.998;2023-04-06T14:35:27;16.10;58.10
26583;DHT22;14230;45.382;10.998;2023-04-06T14:37:56;16.20;58.30
26583;DHT22;14230;45.382;10.998;2023-04-06T14:40:25;16.20;58.30
26583;DHT22;14230;45.382;10.998;2023-04-06T14:42:52;16.30;57.90
26583;DHT22;14230;45.382;10.998;2023-04-06T14:45:21;16.30;57.30
26583;DHT22;14230;45.382;10.998;2023-04-06T14:47:49;16.30;57.60
26583;DHT22;14230;45.382;10.998;2023-04-06T14:50:17;16.30;57.40
26583;DHT22;14230;45.382;10.998;2023-04-06T14:52:45;16.30;57.30
26583;DHT22;14230;45.382;10.998;2023-04-06T14:55:14;16.40;57.70
26583;DHT22;14230;45.382;10.998;2023-04-06T14:57:41;16.50;57.50
26583;DHT22;14230;45.382;10.998;2023-04-06T15:00:09;16.60;57.30
26583;DHT22;14230;45.382;10.998;2023-04-06T15:02:37;16.60;55.90
26583;DHT22;14230;45.382;10.998;2023-04-06T15:05:05;16.70;55.90
26583;DHT22;14230;45.382;10.998;2023-04-06T15:07:33;16.70;56.10
26583;DHT22;14230;45.382;10.998;2023-04-06T15:10:01;16.80;57.00
26583;DHT22;14230;45.382;10.998;2023-04-06T15:12:28;16.90;56.80
26583;DHT22;14230;45.382;10.998;2023-04-06T15:14:56;16.90;56.30
26583;DHT22;14230;45.382;10.998;2023-04-06T15:17:24;16.80;56.10
26583;DHT22;14230;45.382;10.998;2023-04-06T15:19:53;16.70;55.80
26583;DHT22;14230;45.382;10.998;2023-04-06T15:22:21;16.70;56.00
26583;DHT22;14230;45.382;10.998;2023-04-06T15:24:48;16.70;56.50
26583;DHT22;14230;45.382;10.998;2023-04-06T15:27:16;16.60;55.90
26583;DHT22;14230;45.382;10.998;2023-04-06T15:29:47;16.60;56.60
26583;DHT22;14230;45.382;10.998;2023-04-06T15:32:15;16.50;56.90
26583;DHT22;14230;45.382;10.998;2023-04-06T15:34:44;16.40;56.40
26583;DHT22;14230;45.382;10.998;2023-04-06T15:37:11;16.20;56.90
26583;DHT22;14230;45.382;10.998;2023-04-06T15:39:38;16.10;57.20
26583;DHT22;14230;45.382;10.998;2023-04-06T15:42:06;16.10;57.40
26583;DHT22;14230;45.382;10.998;2023-04-06T15:44:34;16.20;58.20
26583;DHT22;14230;45.382;10.998;2023-04-06T15:47:01;16.20;58.10
26583;DHT22;14230;45.382;10.998;2023-04-06T15:49:29;16.20;57.70
26583;DHT22;14230;45.382;10.998;2023-04-06T15:51:57;16.10;56.80
26583;DHT22;14230;45.382;10.998;2023-04-06T15:54:24;16.00;57.40
26583;DHT22;14230;45.382;10.998;2023-04-06T15:56:52;15.90;57.60